sensor_id;sensor_type;location;lat;lon;timestamp;temperature;humidity
3208;DHT22;1616;52.394;9.756;2023-02-01T00:02:24;6.00;1.00
3208;DHT22;1616;52.394;9.756;2023-02-01T00:04:49;6.00;1.00
3208;DHT22;1616;52.394;9.756;2023-02-01T00:07:15;6.00;1.00
3208;DHT22;1616;52.394;9.756;2023-02-01T00:09:40;6.10;1.00
3208;DHT22;1616;52.394;9.756;2023-02-01T00:12:06;6.10;1.00
3208;DHT22;1616;52.394;9.756;2023-02-01T00:14:32;6.00;1.00
3208;DHT22;1616;52.394;9.756;2023-02-01T00:17:05;6.00;1.00
3208;DHT22;1616;52.394;9.756;2023-02-01T00:19:32;6.00;1.00
3208;DHT22;1616;52.394;9.756;2023-02-01T00:21:58;6.10;1.00
3208;DHT22;1616;52.394;9.756;2023-02-01T00:24:24;6.00;1.00
3208;DHT22;1616;52.394;9.756;2023-02-01T00:26:49;6.00;1.00
3208;DHT22;1616;52.394;9.756;2023-02-01T00:29:19;6.00;1.00
3208;DHT22;1616;52.394;9.756;2023-02-01T00:31:46;6.00;1.00
3208;DHT22;1616;52.394;9.756;2023-02-01T00:34:14;6.00;1.00
3208;DHT22;1616;52.394;9.756;2023-02-01T00:36:41;6.00;1.00
3208;DHT22;1616;52.394;9.756;2023-02-01T00:39:06;6.00;1.00
3208;DHT22;1616;52.394;9.756;2023-02-01T00:41:32;6.00;1.00
3208;DHT22;1616;52.394;9.756;2023-02-01T00:43:58;6.00;1.00
3208;DHT22;1616;52.394;9.756;2023-02-01T00:46:24;6.00;1.00
3208;DHT22;1616;52.394;9.756;2023-02-01T00:48:50;5.90;1.00
3208;DHT22;1616;52.394;9.756;2023-02-01T00:51:19;5.90;1.00
3208;DHT22;1616;52.394;9.756;2023-02-01T00:53:45;6.00;1.00
3208;DHT22;1616;52.394;9.756;2023-02-01T00:56:11;6.00;1.00
3208;DHT22;1616;52.394;9.756;2023-02-01T00:58:37;6.00;1.00
3208;DHT22;1616;52.394;9.756;2023-02-01T01:01:07;6.00;1.00
3208;DHT22;1616;52.394;9.756;2023-02-01T01:03:36;5.90;1.00
3208;DHT22;1616;52.394;9.756;2023-02-01T01:06:08;6.00;1.00
3208;DHT22;1616;52.394;9.756;2023-02-01T01:08:34;6.00;1.00
3208;DHT22;1616;52.394;9.756;2023-02-01T01:11:05;5.90;1.00
3208;DHT22;1616;52.394;9.756;2023-02-01T01:13:31;6.00;1.00
3208;DHT22;1616;52.394;9.756;2023-02-01T01:16:00;6.00;1.00
3208;DHT22;1616;52.394;9.756;2023-02-01T01:18:29;5.90;1.00
3208;DHT22;1616;52.394;9.756;2023-02-01T01:20:55;5.90;1.00
3208;DHT22;1616;52.394;9.756;2023-02-01T01:23:21;6.00;1.00
3208;DHT22;1616;52.394;9.756;2023-02-01T01:25:47;5.90;1.00
3208;DHT22;1616;52.394;9.756;2023-02-01T01:28:12;6.00;1.00
3208;DHT22;1616;52.394;9.756;2023-02-01T01:30:38;6.00;1.00
3208;DHT22;1616;52.394;9.756;2023-02-01T01:33:04;6.10;1.00
3208;DHT22;1616;52.394;9.756;2023-02-01T01:35:30;6.00;1.00
3208;DHT22;1616;52.394;9.756;2023-02-01T01:37:57;6.10;1.00
3208;DHT22;1616;52.394;9.756;2023-02-01T01:40:23;6.10;1.00
3208;DHT22;1616;52.394;9.756;2023-02-01T01:42:49;6.00;1.00
3208;DHT22;1616;52.394;9.756;2023-02-01T01:45:30;6.10;1.00
3208;DHT22;1616;52.394;9.756;2023-02-01T01:48:05;6.10;1.00
3208;DHT22;1616;52.394;9.756;2023-02-01T01:50:35;6.00;1.00
3208;DHT22;1616;52.394;9.756;2023-02-01T01:53:06;6.00;1.00
3208;DHT22;1616;52.394;9.756;2023-02-01T01:55:36;6.00;1.00
3208;DHT22;1616;52.394;9.756;2023-02-01T01:58:05;6.10;1.00
3208;DHT22;1616;52.394;9.756;2023-02-01T02:00:33;6.10;1.00
3208;DHT22;1616;52.394;9.756;2023-02-01T02:03:03;6.10;1.00
3208;DHT22;1616;52.394;9.756;2023-02-01T02:05:31;5.90;1.00
3208;DHT22;1616;52.394;9.756;2023-02-01T02:07:58;6.10;1.00
3208;DHT22;1616;52.394;9.756;2023-02-01T02:10:25;6.10;1.00
3208;DHT22;1616;52.394;9.756;2023-02-01T02:13:11;6.10;1.00
3208;DHT22;1616;52.394;9.756;2023-02-01T02:15:43;6.10;1.00
3208;DHT22;1616;52.394;9.756;2023-02-01T02:18:27;6.00;1.00
3208;DHT22;1616;52.394;9.756;2023-02-01T02:21:26;6.00;1.00
3208;DHT22;1616;52.394;9.756;2023-02-01T02:24:09;6.00;1.00
3208;DHT22;1616;52.394;9.756;2023-02-01T02:32:38;6.10;1.00
3208;DHT22;1616;52.394;9.756;2023-02-01T02:35:26;6.10;1.00
3208;DHT22;1616;52.394;9.756;2023-02-01T02:40:31;6.20;1.00
3208;DHT22;1616;52.394;9.756;2023-02-01T02:43:03;6.20;1.00
3208;DHT22;1616;52.394;9.756;2023-02-01T02:48:51;6.20;1.00
3208;DHT22;1616;52.394;9.756;2023-02-01T02:51:24;6.20;1.00
3208;DHT22;1616;52.394;9.756;2023-02-01T02:54:24;6.20;1.00
3208;DHT22;1616;52.394;9.756;2023-02-01T02:57:19;6.20;1.00
3208;DHT22;1616;52.394;9.756;2023-02-01T03:00:08;6.10;1.00
3208;DHT22;1616;52.394;9.756;2023-02-01T03:02:53;6.30;1.00
3208;DHT22;1616;52.394;9.756;2023-02-01T03:05:42;6.30;1.00
3208;DHT22;1616;52.394;9.756;2023-02-01T03:08:14;6.30;1.00
3208;DHT22;1616;52.394;9.756;2023-02-01T03:11:08;6.40;1.00
3208;DHT22;1616;52.394;9.756;2023-02-01T03:13:54;6.40;1.00
3208;DHT22;1616;52.394;9.756;2023-02-01T03:19:01;6.50;1.00
3208;DHT22;1616;52.394;9.756;2023-02-01T03:21:42;6.50;1.00
3208;DHT22;1616;52.394;9.756;2023-02-01T03:24:18;6.50;1.00
3208;DHT22;1616;52.394;9.756;2023-02-01T03:26:54;6.50;1.00
3208;DHT22;1616;52.394;9.756;2023-02-01T03:30:19;6.50;1.00
3208;DHT22;1616;52.394;9.756;2023-02-01T03:32:18;6.40;1.00
3208;DHT22;1616;52.394;9.756;2023-02-01T03:34:46;6.50;1.00
3208;DHT22;1616;52.394;9.756;2023-02-01T03:37:18;6.50;1.00
3208;DHT22;1616;52.394;9.756;2023-02-01T03:40:00;6.50;1.00
3208;DHT22;1616;52.394;9.756;2023-02-01T03:42:44;6.50;1.00
3208;DHT22;1616;52.394;9.756;2023-02-01T03:45:27;6.50;1.00
3208;DHT22;1616;52.394;9.756;2023-02-01T03:47:56;6.50;1.00
3208;DHT22;1616;52.394;9.756;2023-02-01T03:50:23;6.50;1.00
3208;DHT22;1616;52.394;9.756;2023-02-01T03:52:56;6.40;1.00
3208;DHT22;1616;52.394;9.756;2023-02-01T03:55:24;6.50;1.00
3208;DHT22;1616;52.394;9.756;2023-02-01T03:57:55;6.40;1.00
3208;DHT22;1616;52.394;9.756;2023-02-01T04:00:24;6.40;1.00
3208;DHT22;1616;52.394;9.756;2023-02-01T04:02:51;6.40;1.00
3208;DHT22;1616;52.394;9.756;2023-02-01T04:05:17;6.40;1.00
3208;DHT22;1616;52.394;9.756;2023-02-01T04:07:43;6.40;1.00
3208;DHT22;1616;52.394;9.756;2023-02-01T04:10:10;6.40;1.00
3208;DHT22;1616;52.394;9.756;2023-02-01T04:12:36;6.40;1.00
3208;DHT22;1616;52.394;9.756;2023-02-01T04:15:02;6.50;1.00
3208;DHT22;1616;52.394;9.756;2023-02-01T04:17:29;6.50;1.00
3208;DHT22;1616;52.394;9.756;2023-02-01T04:19:55;6.50;1.00
3208;DHT22;1616;52.394;9.756;2023-02-01T04:22:20;6.50;1.00
3208;DHT22;1616;52.394;9.756;2023-02-01T04:24:46;6.50;1.00
3208;DHT22;1616;52.394;9.756;2023-02-01T04:27:11;6.50;1.00
3208;DHT22;1616;52.394;9.756;2023-02-01T04:29:37;6.50;1.00
3208;DHT22;1616;52.394;9.756;2023-02-01T04:32:04;6.30;1.00
3208;DHT22;1616;52.394;9.756;2023-02-01T04:34:30;6.40;1.00
3208;DHT22;1616;52.394;9.756;2023-02-01T04:36:55;6.30;1.00
3208;DHT22;1616;52.394;9.756;2023-02-01T04:39:21;6.20;1.00
3208;DHT22;1616;52.394;9.756;2023-02-01T04:41:47;6.10;1.00
3208;DHT22;1616;52.394;9.756;2023-02-01T04:44:14;6.20;1.00
3208;DHT22;1616;52.394;9.756;2023-02-01T04:46:42;6.20;1.00
3208;DHT22;1616;52.394;9.756;2023-02-01T04:49:11;6.20;1.00
3208;DHT22;1616;52.394;9.756;2023-02-01T04:51:38;6.20;1.00
3208;DHT22;1616;52.394;9.756;2023-02-01T04:54:04;6.20;1.00
3208;DHT22;1616;52.394;9.756;2023-02-01T04:56:30;6.30;1.00
3208;DHT22;1616;52.394;9.756;2023-02-01T04:58:55;6.30;1.00
3208;DHT22;1616;52.394;9.756;2023-02-01T05:01:22;6.20;1.00
3208;DHT22;1616;52.394;9.756;2023-02-01T05:03:48;6.10;1.00
3208;DHT22;1616;52.394;9.756;2023-02-01T05:06:14;6.00;1.00
3208;DHT22;1616;52.394;9.756;2023-02-01T05:08:40;5.90;1.00
3208;DHT22;1616;52.394;9.756;2023-02-01T05:11:06;5.90;1.00
3208;DHT22;1616;52.394;9.756;2023-02-01T05:13:31;5.80;1.00
3208;DHT22;1616;52.394;9.756;2023-02-01T05:16:16;5.80;1.00
3208;DHT22;1616;52.394;9.756;2023-02-01T05:18:41;5.70;1.00
3208;DHT22;1616;52.394;9.756;2023-02-01T05:21:07;5.60;1.00
3208;DHT22;1616;52.394;9.756;2023-02-01T05:23:33;5.70;1.00
3208;DHT22;1616;52.394;9.756;2023-02-01T05:26:19;5.60;1.00
3208;DHT22;1616;52.394;9.756;2023-02-01T05:28:44;5.60;1.00
3208;DHT22;1616;52.394;9.756;2023-02-01T05:31:10;5.50;1.00
3208;DHT22;1616;52.394;9.756;2023-02-01T05:33:36;5.50;1.00
3208;DHT22;1616;52.394;9.756;2023-02-01T05:36:03;5.50;1.00
3208;DHT22;1616;52.394;9.756;2023-02-01T05:38:29;5.40;1.00
3208;DHT22;1616;52.394;9.756;2023-02-01T05:40:57;5.40;1.00
3208;DHT22;1616;52.394;9.756;2023-02-01T05:43:22;5.40;1.00
3208;DHT22;1616;52.394;9.756;2023-02-01T05:45:48;5.40;1.00
3208;DHT22;1616;52.394;9.756;2023-02-01T05:48:13;5.30;1.00
3208;DHT22;1616;52.394;9.756;2023-02-01T05:50:39;5.30;1.00
3208;DHT22;1616;52.394;9.756;2023-02-01T05:53:05;5.40;1.00
3208;DHT22;1616;52.394;9.756;2023-02-01T05:55:31;5.40;1.00
3208;DHT22;1616;52.394;9.756;2023-02-01T05:57:57;5.30;1.00
3208;DHT22;1616;52.394;9.756;2023-02-01T06:00:23;5.40;1.00
3208;DHT22;1616;52.394;9.756;2023-02-01T06:02:48;5.40;1.00
3208;DHT22;1616;52.394;9.756;2023-02-01T06:05:14;5.40;1.00
3208;DHT22;1616;52.394;9.756;2023-02-01T06:07:40;5.40;1.00
3208;DHT22;1616;52.394;9.756;2023-02-01T06:10:06;5.50;1.00
3208;DHT22;1616;52.394;9.756;2023-02-01T06:12:32;5.50;1.00
3208;DHT22;1616;52.394;9.756;2023-02-01T06:14:58;5.50;1.00
3208;DHT22;1616;52.394;9.756;2023-02-01T06:17:24;5.40;1.00
3208;DHT22;1616;52.394;9.756;2023-02-01T06:19:50;5.50;1.00
3208;DHT22;1616;52.394;9.756;2023-02-01T06:22:16;5.50;1.00
3208;DHT22;1616;52.394;9.756;2023-02-01T06:24:42;5.60;1.00
3208;DHT22;1616;52.394;9.756;2023-02-01T06:27:08;5.60;1.00
3208;DHT22;1616;52.394;9.756;2023-02-01T06:29:35;5.50;1.00
3208;DHT22;1616;52.394;9.756;2023-02-01T06:32:01;5.60;1.00
3208;DHT22;1616;52.394;9.756;2023-02-01T06:34:27;5.60;1.00
3208;DHT22;1616;52.394;9.756;2023-02-01T06:36:52;5.60;1.00
3208;DHT22;1616;52.394;9.756;2023-02-01T06:39:20;5.60;1.00
3208;DHT22;1616;52.394;9.756;2023-02-01T06:41:47;5.60;1.00
3208;DHT22;1616;52.394;9.756;2023-02-01T06:44:15;5.60;1.00
3208;DHT22;1616;52.394;9.756;2023-02-01T06:46:40;5.60;1.00
3208;DHT22;1616;52.394;9.756;2023-02-01T06:49:06;5.60;1.00
3208;DHT22;1616;52.394;9.756;2023-02-01T06:51:33;5.60;1.00
3208;DHT22;1616;52.394;9.756;2023-02-01T06:53:58;5.50;1.00
3208;DHT22;1616;52.394;9.756;2023-02-01T06:56:24;5.60;1.00
3208;DHT22;1616;52.394;9.756;2023-02-01T06:58:50;5.50;1.00
3208;DHT22;1616;52.394;9.756;2023-02-01T07:01:16;5.50;1.00
3208;DHT22;1616;52.394;9.756;2023-02-01T07:03:42;5.50;1.00
3208;DHT22;1616;52.394;9.756;2023-02-01T07:06:09;5.50;1.00
3208;DHT22;1616;52.394;9.756;2023-02-01T07:08:36;5.50;1.00
3208;DHT22;1616;52.394;9.756;2023-02-01T07:11:08;5.50;1.00
3208;DHT22;1616;52.394;9.756;2023-02-01T07:13:34;5.50;1.00
3208;DHT22;1616;52.394;9.756;2023-02-01T07:16:01;5.40;1.00
3208;DHT22;1616;52.394;9.756;2023-02-01T07:18:29;5.50;1.00
3208;DHT22;1616;52.394;9.756;2023-02-01T07:20:55;5.50;1.00
3208;DHT22;1616;52.394;9.756;2023-02-01T07:23:22;5.60;1.00
3208;DHT22;1616;52.394;9.756;2023-02-01T07:25:48;5.60;1.00
3208;DHT22;1616;52.394;9.756;2023-02-01T07:28:13;5.60;1.00
3208;DHT22;1616;52.394;9.756;2023-02-01T07:30:39;5.60;1.00
3208;DHT22;1616;52.394;9.756;2023-02-01T07:33:06;5.60;1.00
3208;DHT22;1616;52.394;9.756;2023-02-01T07:35:32;5.70;1.00
3208;DHT22;1616;52.394;9.756;2023-02-01T07:37:58;5.70;1.00
3208;DHT22;1616;52.394;9.756;2023-02-01T07:40:24;5.70;1.00
3208;DHT22;1616;52.394;9.756;2023-02-01T07:42:58;5.80;1.00
3208;DHT22;1616;52.394;9.756;2023-02-01T07:45:24;5.80;1.00
3208;DHT22;1616;52.394;9.756;2023-02-01T07:47:51;5.80;1.00
3208;DHT22;1616;52.394;9.756;2023-02-01T07:50:18;5.90;1.00
3208;DHT22;1616;52.394;9.756;2023-02-01T07:52:43;5.90;1.00
3208;DHT22;1616;52.394;9.756;2023-02-01T07:55:09;5.90;1.00
3208;DHT22;1616;52.394;9.756;2023-02-01T07:57:35;6.00;1.00
3208;DHT22;1616;52.394;9.756;2023-02-01T08:00:00;6.10;1.00
3208;DHT22;1616;52.394;9.756;2023-02-01T08:02:45;6.20;1.00
3208;DHT22;1616;52.394;9.756;2023-02-01T08:05:10;6.20;1.00
3208;DHT22;1616;52.394;9.756;2023-02-01T08:07:36;6.30;1.00
3208;DHT22;1616;52.394;9.756;2023-02-01T08:10:02;6.30;1.00
3208;DHT22;1616;52.394;9.756;2023-02-01T08:12:27;6.40;1.00
3208;DHT22;1616;52.394;9.756;2023-02-01T08:14:53;6.40;1.00
3208;DHT22;1616;52.394;9.756;2023-02-01T08:17:19;6.40;1.00
3208;DHT22;1616;52.394;9.756;2023-02-01T08:19:45;6.50;1.00
3208;DHT22;1616;52.394;9.756;2023-02-01T08:22:11;6.60;1.00
3208;DHT22;1616;52.394;9.756;2023-02-01T08:24:37;6.60;1.00
3208;DHT22;1616;52.394;9.756;2023-02-01T08:27:06;6.70;1.00
3208;DHT22;1616;52.394;9.756;2023-02-01T08:29:32;6.70;1.00
3208;DHT22;1616;52.394;9.756;2023-02-01T08:31:58;6.80;1.00
3208;DHT22;1616;52.394;9.756;2023-02-01T08:34:24;6.80;1.00
3208;DHT22;1616;52.394;9.756;2023-02-01T08:36:50;6.80;1.00
3208;DHT22;1616;52.394;9.756;2023-02-01T08:39:17;6.90;1.00
3208;DHT22;1616;52.394;9.756;2023-02-01T08:41:43;6.90;1.00
3208;DHT22;1616;52.394;9.756;2023-02-01T08:44:28;6.90;1.00
3208;DHT22;1616;52.394;9.756;2023-02-01T08:46:54;6.90;1.00
3208;DHT22;1616;52.394;9.756;2023-02-01T08:49:19;6.90;1.00
3208;DHT22;1616;52.394;9.756;2023-02-01T08:51:45;7.00;1.00
3208;DHT22;1616;52.394;9.756;2023-02-01T08:54:11;7.00;1.00
3208;DHT22;1616;52.394;9.756;2023-02-01T08:56:36;7.10;1.00
3208;DHT22;1616;52.394;9.756;2023-02-01T08:59:02;7.10;1.00
3208;DHT22;1616;52.394;9.756;2023-02-01T09:01:27;7.20;1.00
3208;DHT22;1616;52.394;9.756;2023-02-01T09:03:53;7.30;1.00
3208;DHT22;1616;52.394;9.756;2023-02-01T09:06:18;7.30;1.00
3208;DHT22;1616;52.394;9.756;2023-02-01T09:08:44;7.40;1.00
3208;DHT22;1616;52.394;9.756;2023-02-01T09:11:15;7.40;1.00
3208;DHT22;1616;52.394;9.756;2023-02-01T09:13:41;7.50;1.00
3208;DHT22;1616;52.394;9.756;2023-02-01T09:16:07;7.70;1.00
3208;DHT22;1616;52.394;9.756;2023-02-01T09:18:32;8.10;1.00
3208;DHT22;1616;52.394;9.756;2023-02-01T09:20:58;8.30;1.00
3208;DHT22;1616;52.394;9.756;2023-02-01T09:23:24;8.50;1.00
3208;DHT22;1616;52.394;9.756;2023-02-01T09:25:50;8.60;1.00
3208;DHT22;1616;52.394;9.756;2023-02-01T09:28:17;8.60;1.00
3208;DHT22;1616;52.394;9.756;2023-02-01T09:30:43;8.60;1.00
3208;DHT22;1616;52.394;9.756;2023-02-01T09:33:09;8.60;1.00
3208;DHT22;1616;52.394;9.756;2023-02-01T09:35:35;8.50;1.00
3208;DHT22;1616;52.394;9.756;2023-02-01T09:38:00;8.50;1.00
3208;DHT22;1616;52.394;9.756;2023-02-01T09:40:26;8.60;1.00
3208;DHT22;1616;52.394;9.756;2023-02-01T09:43:17;8.60;1.00
3208;DHT22;1616;52.394;9.756;2023-02-01T09:46:04;8.50;1.00
3208;DHT22;1616;52.394;9.756;2023-02-01T09:48:38;8.60;1.00
3208;DHT22;1616;52.394;9.756;2023-02-01T09:51:13;8.60;1.00
3208;DHT22;1616;52.394;9.756;2023-02-01T09:53:43;8.60;1.00
3208;DHT22;1616;52.394;9.756;2023-02-01T09:56:12;8.50;1.00
3208;DHT22;1616;52.394;9.756;2023-02-01T09:58:55;8.50;1.00
3208;DHT22;1616;52.394;9.756;2023-02-01T10:01:26;8.50;1.00
3208;DHT22;1616;52.394;9.756;2023-02-01T10:04:07;8.50;1.00
3208;DHT22;1616;52.394;9.756;2023-02-01T10:06:40;8.60;1.00
3208;DHT22;1616;52.394;9.756;2023-02-01T10:09:35;8.60;1.00
3208;DHT22;1616;52.394;9.756;2023-02-01T10:23:03;8.90;1.00
3208;DHT22;1616;52.394;9.756;2023-02-01T10:25:54;9.00;1.00
3208;DHT22;1616;52.394;9.756;2023-02-01T10:28:20;9.10;1.00
3208;DHT22;1616;52.394;9.756;2023-02-01T10:30:48;9.20;1.00
3208;DHT22;1616;52.394;9.756;2023-02-01T10:33:23;9.20;1.00
3208;DHT22;1616;52.394;9.756;2023-02-01T10:35:55;9.20;1.00
3208;DHT22;1616;52.394;9.756;2023-02-01T10:38:29;9.20;1.00
3208;DHT22;1616;52.394;9.756;2023-02-01T10:41:00;9.20;1.00
3208;DHT22;1616;52.394;9.756;2023-02-01T10:43:27;9.20;1.00
3208;DHT22;1616;52.394;9.756;2023-02-01T10:45:52;9.20;1.00
3208;DHT22;1616;52.394;9.756;2023-02-01T10:48:18;9.10;1.00
3208;DHT22;1616;52.394;9.756;2023-02-01T10:50:51;9.10;1.00
3208;DHT22;1616;52.394;9.756;2023-02-01T10:53:24;9.00;1.00
3208;DHT22;1616;52.394;9.756;2023-02-01T10:55:53;9.00;1.00
3208;DHT22;1616;52.394;9.756;2023-02-01T10:58:30;8.90;1.00
3208;DHT22;1616;52.394;9.756;2023-02-01T11:01:06;8.80;1.00
3208;DHT22;1616;52.394;9.756;2023-02-01T11:03:55;8.80;1.00
3208;DHT22;1616;52.394;9.756;2023-02-01T11:06:33;8.80;1.00
3208;DHT22;1616;52.394;9.756;2023-02-01T11:11:32;8.70;1.00
3208;DHT22;1616;52.394;9.756;2023-02-01T11:14:12;8.60;1.00
3208;DHT22;1616;52.394;9.756;2023-02-01T11:16:39;8.60;1.00
3208;DHT22;1616;52.394;9.756;2023-02-01T11:19:06;8.60;1.00
3208;DHT22;1616;52.394;9.756;2023-02-01T11:21:34;8.70;1.00
3208;DHT22;1616;52.394;9.756;2023-02-01T11:24:04;8.70;1.00
3208;DHT22;1616;52.394;9.756;2023-02-01T11:26:32;8.70;1.00
3208;DHT22;1616;52.394;9.756;2023-02-01T11:29:03;8.70;1.00
3208;DHT22;1616;52.394;9.756;2023-02-01T11:31:30;8.60;1.00
3208;DHT22;1616;52.394;9.756;2023-02-01T11:34:04;8.60;1.00
3208;DHT22;1616;52.394;9.756;2023-02-01T11:36:32;8.60;1.00
3208;DHT22;1616;52.394;9.756;2023-02-01T11:39:19;8.60;1.00
3208;DHT22;1616;52.394;9.756;2023-02-01T11:42:16;8.70;1.00
3208;DHT22;1616;52.394;9.756;2023-02-01T11:44:44;8.80;1.00
3208;DHT22;1616;52.394;9.756;2023-02-01T11:47:30;9.00;1.00
3208;DHT22;1616;52.394;9.756;2023-02-01T11:50:03;9.10;1.00
3208;DHT22;1616;52.394;9.756;2023-02-01T11:58:33;9.20;1.00
3208;DHT22;1616;52.394;9.756;2023-02-01T12:09:06;9.60;1.00
3208;DHT22;1616;52.394;9.756;2023-02-01T12:11:43;9.60;1.00
3208;DHT22;1616;52.394;9.756;2023-02-01T12:25:44;9.60;1.00
3208;DHT22;1616;52.394;9.756;2023-02-01T12:28:59;9.40;1.00
3208;DHT22;1616;52.394;9.756;2023-02-01T12:31:20;9.20;1.00
3208;DHT22;1616;52.394;9.756;2023-02-01T12:36:58;8.50;1.00
3208;DHT22;1616;52.394;9.756;2023-02-01T12:42:21;8.00;1.00
3208;DHT22;1616;52.394;9.756;2023-02-01T12:44:50;7.80;1.00
3208;DHT22;1616;52.394;9.756;2023-02-01T12:47:36;7.70;1.00
3208;DHT22;1616;52.394;9.756;2023-02-01T12:50:12;7.50;1.00
3208;DHT22;1616;52.394;9.756;2023-02-01T12:52:51;7.30;1.00
3208;DHT22;1616;52.394;9.756;2023-02-01T12:58:13;7.10;1.00
3208;DHT22;1616;52.394;9.756;2023-02-01T13:00:44;7.10;1.00
3208;DHT22;1616;52.394;9.756;2023-02-01T13:06:20;7.00;1.00
3208;DHT22;1616;52.394;9.756;2023-02-01T13:09:02;6.90;1.00
3208;DHT22;1616;52.394;9.756;2023-02-01T13:11:30;6.80;1.00
3208;DHT22;1616;52.394;9.756;2023-02-01T13:14:06;6.70;1.00
3208;DHT22;1616;52.394;9.756;2023-02-01T13:16:40;6.60;1.00
3208;DHT22;1616;52.394;9.756;2023-02-01T13:19:24;6.60;1.00
3208;DHT22;1616;52.394;9.756;2023-02-01T13:21:56;6.50;1.00
3208;DHT22;1616;52.394;9.756;2023-02-01T13:24:30;6.40;1.00
3208;DHT22;1616;52.394;9.756;2023-02-01T13:26:57;6.40;1.00
3208;DHT22;1616;52.394;9.756;2023-02-01T13:29:24;6.30;1.00
3208;DHT22;1616;52.394;9.756;2023-02-01T13:32:10;6.30;1.00
3208;DHT22;1616;52.394;9.756;2023-02-01T13:37:55;6.10;1.00
3208;DHT22;1616;52.394;9.756;2023-02-01T13:40:46;6.00;1.00
3208;DHT22;1616;52.394;9.756;2023-02-01T13:43:26;5.70;1.00
3208;DHT22;1616;52.394;9.756;2023-02-01T13:45:56;5.40;1.00
3208;DHT22;1616;52.394;9.756;2023-02-01T13:51:13;4.90;1.00
3208;DHT22;1616;52.394;9.756;2023-02-01T13:53:46;4.70;1.00
3208;DHT22;1616;52.394;9.756;2023-02-01T13:56:19;4.60;1.00
3208;DHT22;1616;52.394;9.756;2023-02-01T13:58:47;4.50;1.00
3208;DHT22;1616;52.394;9.756;2023-02-01T14:03:59;4.30;1.00
3208;DHT22;1616;52.394;9.756;2023-02-01T14:09:12;4.20;1.00
3208;DHT22;1616;52.394;9.756;2023-02-01T14:11:54;4.20;1.00
3208;DHT22;1616;52.394;9.756;2023-02-01T14:19:37;4.20;1.00
3208;DHT22;1616;52.394;9.756;2023-02-01T14:24:51;4.10;1.00
3208;DHT22;1616;52.394;9.756;2023-02-01T14:27:23;4.10;1.00
3208;DHT22;1616;52.394;9.756;2023-02-01T14:30:02;4.10;1.00
3208;DHT22;1616;52.394;9.756;2023-02-01T14:32:34;4.10;1.00
3208;DHT22;1616;52.394;9.756;2023-02-01T14:35:05;4.10;1.00
3208;DHT22;1616;52.394;9.756;2023-02-01T14:37:36;4.10;1.00
3208;DHT22;1616;52.394;9.756;2023-02-01T14:42:45;4.10;1.00
3208;DHT22;1616;52.394;9.756;2023-02-01T14:47:49;4.20;1.00
3208;DHT22;1616;52.394;9.756;2023-02-01T14:50:31;4.20;1.00
3208;DHT22;1616;52.394;9.756;2023-02-01T14:55:42;4.30;1.00
3208;DHT22;1616;52.394;9.756;2023-02-01T14:58:41;4.30;1.00
3208;DHT22;1616;52.394;9.756;2023-02-01T15:09:36;4.20;1.00
3208;DHT22;1616;52.394;9.756;2023-02-01T15:14:44;4.10;1.00
3208;DHT22;1616;52.394;9.756;2023-02-01T15:17:27;4.10;1.00
3208;DHT22;1616;52.394;9.756;2023-02-01T15:20:01;4.10;1.00
3208;DHT22;1616;52.394;9.756;2023-02-01T15:22:29;4.10;1.00
3208;DHT22;1616;52.394;9.756;2023-02-01T15:24:59;4.20;1.00
3208;DHT22;1616;52.394;9.756;2023-02-01T15:27:26;4.20;1.00
3208;DHT22;1616;52.394;9.756;2023-02-01T15:29:52;4.20;1.00
3208;DHT22;1616;52.394;9.756;2023-02-01T15:32:32;4.30;1.00
3208;DHT22;1616;52.394;9.756;2023-02-01T15:34:59;4.30;1.00
3208;DHT22;1616;52.394;9.756;2023-02-01T15:37:29;4.30;1.00
3208;DHT22;1616;52.394;9.756;2023-02-01T15:42:55;4.20;1.00
3208;DHT22;1616;52.394;9.756;2023-02-01T15:45:25;4.20;1.00
3208;DHT22;1616;52.394;9.756;2023-02-01T15:47:53;4.40;1.00
3208;DHT22;1616;52.394;9.756;2023-02-01T15:50:20;4.40;1.00
3208;DHT22;1616;52.394;9.756;2023-02-01T15:52:51;4.30;1.00
3208;DHT22;1616;52.394;9.756;2023-02-01T15:57:53;5.00;1.00
3208;DHT22;1616;52.394;9.756;2023-02-01T16:00:23;4.20;1.00
3208;DHT22;1616;52.394;9.756;2023-02-01T16:02:58;4.20;1.00
3208;DHT22;1616;52.394;9.756;2023-02-01T16:05:32;4.20;1.00
3208;DHT22;1616;52.394;9.756;2023-02-01T16:08:13;4.20;1.00
3208;DHT22;1616;52.394;9.756;2023-02-01T16:10:43;4.10;1.00
3208;DHT22;1616;52.394;9.756;2023-02-01T16:13:09;4.10;1.00
3208;DHT22;1616;52.394;9.756;2023-02-01T16:15:35;4.10;1.00
3208;DHT22;1616;52.394;9.756;2023-02-01T16:18:01;4.10;1.00
3208;DHT22;1616;52.394;9.756;2023-02-01T16:20:27;4.10;1.00
3208;DHT22;1616;52.394;9.756;2023-02-01T16:22:53;4.10;1.00
3208;DHT22;1616;52.394;9.756;2023-02-01T16:25:18;4.10;1.00
3208;DHT22;1616;52.394;9.756;2023-02-01T16:27:44;4.10;1.00
3208;DHT22;1616;52.394;9.756;2023-02-01T16:30:10;4.10;1.00
3208;DHT22;1616;52.394;9.756;2023-02-01T16:32:37;4.00;1.00
3208;DHT22;1616;52.394;9.756;2023-02-01T16:35:27;4.00;1.00
3208;DHT22;1616;52.394;9.756;2023-02-01T16:37:54;4.00;1.00
3208;DHT22;1616;52.394;9.756;2023-02-01T16:40:20;3.90;1.00
3208;DHT22;1616;52.394;9.756;2023-02-01T16:42:51;4.00;1.00
3208;DHT22;1616;52.394;9.756;2023-02-01T16:45:16;4.10;1.00
3208;DHT22;1616;52.394;9.756;2023-02-01T16:47:47;4.10;1.00
3208;DHT22;1616;52.394;9.756;2023-02-01T16:50:18;4.20;1.00
3208;DHT22;1616;52.394;9.756;2023-02-01T16:52:46;4.20;1.00
3208;DHT22;1616;52.394;9.756;2023-02-01T16:55:16;4.30;1.00
3208;DHT22;1616;52.394;9.756;2023-02-01T16:57:42;4.30;1.00
3208;DHT22;1616;52.394;9.756;2023-02-01T17:00:12;4.40;1.00
3208;DHT22;1616;52.394;9.756;2023-02-01T17:02:38;4.40;1.00
3208;DHT22;1616;52.394;9.756;2023-02-01T17:05:05;4.40;1.00
3208;DHT22;1616;52.394;9.756;2023-02-01T17:07:31;4.50;1.00
3208;DHT22;1616;52.394;9.756;2023-02-01T17:09:57;4.60;1.00
3208;DHT22;1616;52.394;9.756;2023-02-01T17:12:29;4.60;1.00
3208;DHT22;1616;52.394;9.756;2023-02-01T17:14:56;4.70;1.00
3208;DHT22;1616;52.394;9.756;2023-02-01T17:17:23;4.70;1.00
3208;DHT22;1616;52.394;9.756;2023-02-01T17:19:51;4.80;1.00
3208;DHT22;1616;52.394;9.756;2023-02-01T17:22:19;4.80;1.00
3208;DHT22;1616;52.394;9.756;2023-02-01T17:24:46;5.00;1.00
3208;DHT22;1616;52.394;9.756;2023-02-01T17:27:12;5.00;1.00
3208;DHT22;1616;52.394;9.756;2023-02-01T17:29:37;5.10;1.00
3208;DHT22;1616;52.394;9.756;2023-02-01T17:32:03;5.20;1.00
3208;DHT22;1616;52.394;9.756;2023-02-01T17:34:29;5.10;1.00
3208;DHT22;1616;52.394;9.756;2023-02-01T17:36:55;5.20;1.00
3208;DHT22;1616;52.394;9.756;2023-02-01T17:39:21;5.20;1.00
3208;DHT22;1616;52.394;9.756;2023-02-01T17:42:09;5.30;1.00
3208;DHT22;1616;52.394;9.756;2023-02-01T17:44:35;5.20;1.00
3208;DHT22;1616;52.394;9.756;2023-02-01T17:47:01;5.40;1.00
3208;DHT22;1616;52.394;9.756;2023-02-01T17:49:27;5.40;1.00
3208;DHT22;1616;52.394;9.756;2023-02-01T17:51:56;5.50;1.00
3208;DHT22;1616;52.394;9.756;2023-02-01T17:54:22;5.50;1.00
3208;DHT22;1616;52.394;9.756;2023-02-01T17:56:47;5.50;1.00
3208;DHT22;1616;52.394;9.756;2023-02-01T17:59:14;5.50;1.00
3208;DHT22;1616;52.394;9.756;2023-02-01T18:01:40;5.50;1.00
3208;DHT22;1616;52.394;9.756;2023-02-01T18:04:10;5.40;1.00
3208;DHT22;1616;52.394;9.756;2023-02-01T18:06:36;5.50;1.00
3208;DHT22;1616;52.394;9.756;2023-02-01T18:09:01;5.50;1.00
3208;DHT22;1616;52.394;9.756;2023-02-01T18:11:27;5.50;1.00
3208;DHT22;1616;52.394;9.756;2023-02-01T18:13:57;5.40;1.00
3208;DHT22;1616;52.394;9.756;2023-02-01T18:16:26;5.50;1.00
3208;DHT22;1616;52.394;9.756;2023-02-01T18:18:52;5.50;1.00
3208;DHT22;1616;52.394;9.756;2023-02-01T18:21:20;5.40;1.00
3208;DHT22;1616;52.394;9.756;2023-02-01T18:23:47;5.50;1.00
3208;DHT22;1616;52.394;9.756;2023-02-01T18:26:16;5.50;1.00
3208;DHT22;1616;52.394;9.756;2023-02-01T18:28:42;5.50;1.00
3208;DHT22;1616;52.394;9.756;2023-02-01T18:31:28;5.50;1.00
3208;DHT22;1616;52.394;9.756;2023-02-01T18:33:57;5.50;1.00
3208;DHT22;1616;52.394;9.756;2023-02-01T18:36:24;5.50;1.00
3208;DHT22;1616;52.394;9.756;2023-02-01T18:38:50;5.50;1.00
3208;DHT22;1616;52.394;9.756;2023-02-01T18:41:17;5.50;1.00
3208;DHT22;1616;52.394;9.756;2023-02-01T18:43:46;5.60;1.00